Time,TemperatureF,DewpointF,PressureIn,WindDirection,WindDirectionDegrees,WindSpeedMPH,WindSpeedGustMPH,Humidity,HourlyPrecipIn,Conditions,Clouds,dailyrainin,SoftwareType,DateUTC
2013-03-18 00:02:00,30.6,26.9,29.71,South,178,18.0,18.0,86,0.00,,,0.00,Wunderground v.1.15,2013-03-18 05:02:00,
2013-03-18 00:08:00,30.4,26.7,29.71,SSW,196,16.0,21.0,86,0.00,,,0.00,Wunderground v.1.15,2013-03-18 05:08:00,
2013-03-18 00:14:00,30.4,27.0,29.71,South,169,12.0,16.0,87,0.00,,,0.00,Wunderground v.1.15,2013-03-18 05:14:00,
2013-03-18 00:19:00,30.3,27.2,29.71,SSE,162,15.0,18.0,88,0.00,,,0.00,Wunderground v.1.15,2013-03-18 05:19:00,
2013-03-18 00:25:00,30.1,27.0,29.71,South,177,14.0,22.0,88,0.00,,,0.00,Wunderground v.1.15,2013-03-18 05:25:00,
2013-03-18 00:30:00,30.1,27.0,29.70,SSE,165,13.0,15.0,88,0.00,,,0.00,Wunderground v.1.15,2013-03-18 05:30:00,
2013-03-18 00:35:00,30.1,27.3,29.70,SE,143,9.0,16.0,89,0.00,,,0.00,Wunderground v.1.15,2013-03-18 05:35:00,
2013-03-18 00:41:00,30.1,27.3,29.70,SSE,155,14.0,17.0,89,0.00,,,0.00,Wunderground v.1.15,2013-03-18 05:41:00,
2013-03-18 00:47:00,30.0,27.2,29.69,SSE,167,12.0,17.0,89,0.00,,,0.00,Wunderground v.1.15,2013-03-18 05:47:00,
2013-03-18 00:53:00,30.0,27.2,29.69,South,173,12.0,16.0,89,0.00,,,0.00,Wunderground v.1.15,2013-03-18 05:53:00,
2013-03-18 00:58:00,30.1,27.3,29.69,SSE,167,9.0,26.0,89,0.00,,,0.00,Wunderground v.1.15,2013-03-18 05:58:00,
2013-03-18 01:04:00,30.0,27.2,29.69,SE,125,7.0,20.0,89,0.00,,,0.00,Wunderground v.1.15,2013-03-18 06:04:00,
2013-03-18 01:09:00,30.0,27.2,29.69,South,189,19.0,20.0,89,0.00,,,0.00,Wunderground v.1.15,2013-03-18 06:09:00,
2013-03-18 01:14:00,30.0,27.2,29.67,South,175,21.0,21.0,89,0.00,,,0.00,Wunderground v.1.15,2013-03-18 06:14:00,
2013-03-18 01:20:00,30.0,27.2,29.67,South,170,20.0,20.0,89,0.00,,,0.00,Wunderground v.1.15,2013-03-18 06:20:00,
2013-03-18 01:25:00,29.8,27.0,29.67,South,182,14.0,20.0,89,0.00,,,0.00,Wunderground v.1.15,2013-03-18 06:25:00,
2013-03-18 01:30:00,29.8,27.2,29.67,SSE,167,14.0,14.0,90,0.00,,,0.00,Wunderground v.1.15,2013-03-18 06:30:00,
2013-03-18 01:36:00,29.7,26.6,29.67,South,169,15.0,16.0,88,0.00,,,0.00,Wunderground v.1.15,2013-03-18 06:36:00,
2013-03-18 01:41:00,29.5,27.2,29.67,South,178,17.0,17.0,91,0.00,,,0.00,Wunderground v.1.15,2013-03-18 06:41:00,
2013-03-18 01:46:00,29.5,27.5,29.67,SE,146,11.0,20.0,92,0.00,,,0.00,Wunderground v.1.15,2013-03-18 06:46:00,
2013-03-18 01:52:00,29.5,27.5,29.67,South,173,9.0,14.0,92,0.00,,,0.00,Wunderground v.1.15,2013-03-18 06:52:00,
2013-03-18 01:57:00,29.4,27.4,29.67,South,179,8.0,19.0,92,0.00,,,0.00,Wunderground v.1.15,2013-03-18 06:57:00,
2013-03-18 02:02:00,29.4,27.6,29.66,South,183,14.0,14.0,93,0.00,,,0.00,Wunderground v.1.15,2013-03-18 07:02:00,
2013-03-18 02:07:00,29.4,27.6,29.66,South,175,10.0,20.0,93,0.00,,,0.00,Wunderground v.1.15,2013-03-18 07:07:00,
2013-03-18 02:12:00,29.4,27.9,29.66,South,178,13.0,18.0,94,0.00,,,0.00,Wunderground v.1.15,2013-03-18 07:12:00,
2013-03-18 02:17:00,29.5,28.0,29.66,SSE,161,10.0,18.0,94,0.00,,,0.00,Wunderground v.1.15,2013-03-18 07:17:00,
2013-03-18 02:22:00,29.5,28.0,29.66,South,180,10.0,16.0,94,0.00,,,0.00,Wunderground v.1.15,2013-03-18 07:22:00,
2013-03-18 02:27:00,29.5,27.5,29.66,South,173,10.0,18.0,92,0.00,,,0.00,Wunderground v.1.15,2013-03-18 07:27:00,
2013-03-18 02:32:00,29.7,28.2,29.67,South,171,9.0,16.0,94,0.00,,,0.00,Wunderground v.1.15,2013-03-18 07:32:00,
2013-03-18 02:37:00,29.7,28.2,29.67,SSW,194,7.0,17.0,94,0.00,,,0.00,Wunderground v.1.15,2013-03-18 07:37:00,
2013-03-18 02:42:00,29.8,28.5,29.67,South,190,12.0,17.0,95,0.00,,,0.00,Wunderground v.1.15,2013-03-18 07:42:00,
2013-03-18 02:47:00,30.0,28.7,29.67,South,178,14.0,20.0,95,0.00,,,0.00,Wunderground v.1.15,2013-03-18 07:47:00,
2013-03-18 02:52:00,30.0,28.5,29.67,South,182,8.0,22.0,94,0.00,,,0.00,Wunderground v.1.15,2013-03-18 07:52:00,
2013-03-18 02:57:00,30.0,28.5,29.67,South,180,14.0,22.0,94,0.00,,,0.00,Wunderground v.1.15,2013-03-18 07:57:00,
2013-03-18 03:02:00,30.0,28.5,29.67,South,186,10.0,16.0,94,0.00,,,0.00,Wunderground v.1.15,2013-03-18 08:02:00,
2013-03-18 03:07:00,30.1,28.6,29.67,South,182,10.0,16.0,94,0.00,,,0.00,Wunderground v.1.15,2013-03-18 08:07:00,
2013-03-18 03:12:00,30.1,28.6,29.67,South,189,14.0,19.0,94,0.00,,,0.00,Wunderground v.1.15,2013-03-18 08:12:00,
2013-03-18 03:17:00,30.1,28.6,29.66,SSE,163,12.0,20.0,94,0.00,,,0.00,Wunderground v.1.15,2013-03-18 08:17:00,
2013-03-18 03:22:00,30.1,28.8,29.66,South,185,11.0,21.0,95,0.00,,,0.00,Wunderground v.1.15,2013-03-18 08:22:00,
2013-03-18 03:27:00,30.1,28.8,29.66,SSE,167,7.0,21.0,95,0.00,,,0.00,Wunderground v.1.15,2013-03-18 08:27:00,
2013-03-18 03:32:00,30.1,28.8,29.65,South,186,10.0,15.0,95,0.00,,,0.00,Wunderground v.1.15,2013-03-18 08:32:00,
2013-03-18 03:37:00,30.1,28.8,29.65,South,184,10.0,15.0,95,0.00,,,0.00,Wunderground v.1.15,2013-03-18 08:37:00,
2013-03-18 03:42:00,30.1,28.8,29.65,South,184,11.0,15.0,95,0.00,,,0.00,Wunderground v.1.15,2013-03-18 08:42:00,
2013-03-18 03:47:00,30.1,28.8,29.65,South,190,18.0,18.0,95,0.00,,,0.00,Wunderground v.1.15,2013-03-18 08:47:00,
2013-03-18 03:52:00,30.1,28.8,29.65,South,181,9.0,22.0,95,0.00,,,0.00,Wunderground v.1.15,2013-03-18 08:52:00,
2013-03-18 03:57:00,30.3,29.0,29.65,South,171,13.0,22.0,95,0.00,,,0.00,Wunderground v.1.15,2013-03-18 08:57:00,
2013-03-18 04:02:00,30.3,29.0,29.65,South,182,15.0,17.0,95,0.00,,,0.00,Wunderground v.1.15,2013-03-18 09:02:00,
2013-03-18 04:07:00,30.3,29.0,29.65,South,189,5.0,18.0,95,0.00,,,0.00,Wunderground v.1.15,2013-03-18 09:07:00,
2013-03-18 04:13:00,30.3,29.0,29.65,SSE,168,9.0,16.0,95,0.00,,,0.00,Wunderground v.1.15,2013-03-18 09:13:00,
2013-03-18 04:18:00,30.3,29.0,29.63,SSW,192,9.0,22.0,95,0.00,,,0.00,Wunderground v.1.15,2013-03-18 09:18:00,
2013-03-18 04:23:00,30.3,29.3,29.63,South,172,10.0,15.0,96,0.00,,,0.00,Wunderground v.1.15,2013-03-18 09:23:00,
2013-03-18 04:28:00,30.4,29.4,29.63,South,190,10.0,16.0,96,0.00,,,0.00,Wunderground v.1.15,2013-03-18 09:28:00,
2013-03-18 04:33:00,30.4,29.4,29.63,South,186,9.0,18.0,96,0.00,,,0.00,Wunderground v.1.15,2013-03-18 09:33:00,
2013-03-18 04:38:00,30.6,29.6,29.63,SSW,194,9.0,18.0,96,0.00,,,0.00,Wunderground v.1.15,2013-03-18 09:38:00,
2013-03-18 04:43:00,30.6,29.6,29.62,South,188,9.0,13.0,96,0.00,,,0.00,Wunderground v.1.15,2013-03-18 09:43:00,
2013-03-18 04:48:00,30.7,29.7,29.62,SSW,201,10.0,20.0,96,0.00,,,0.00,Wunderground v.1.15,2013-03-18 09:48:00,
2013-03-18 04:53:00,30.9,29.9,29.62,SSW,194,9.0,11.0,96,0.00,,,0.00,Wunderground v.1.15,2013-03-18 09:53:00,
2013-03-18 04:58:00,31.0,30.0,29.61,South,173,5.0,12.0,96,0.00,,,0.00,Wunderground v.1.15,2013-03-18 09:58:00,
2013-03-18 05:03:00,31.2,30.2,29.61,South,188,10.0,13.0,96,0.00,,,0.00,Wunderground v.1.15,2013-03-18 10:03:00,
2013-03-18 05:09:00,31.3,30.3,29.61,South,189,5.0,13.0,96,0.00,,,0.00,Wunderground v.1.15,2013-03-18 10:09:00,
2013-03-18 05:14:00,31.5,30.5,29.61,South,186,9.0,15.0,96,0.00,,,0.00,Wunderground v.1.15,2013-03-18 10:14:00,
2013-03-18 05:19:00,31.8,30.8,29.61,SSW,201,9.0,15.0,96,0.00,,,0.00,Wunderground v.1.15,2013-03-18 10:19:00,
2013-03-18 05:24:00,31.9,30.9,29.61,South,187,7.0,18.0,96,0.00,,,0.00,Wunderground v.1.15,2013-03-18 10:24:00,
2013-03-18 05:29:00,31.9,30.9,29.60,SSW,200,5.0,18.0,96,0.00,,,0.00,Wunderground v.1.15,2013-03-18 10:29:00,
2013-03-18 05:34:00,32.1,31.1,29.60,South,189,5.0,15.0,96,0.00,,,0.00,Wunderground v.1.15,2013-03-18 10:34:00,
2013-03-18 05:39:00,32.1,31.1,29.60,SSW,211,13.0,15.0,96,0.00,,,0.00,Wunderground v.1.15,2013-03-18 10:39:00,
2013-03-18 05:44:00,32.2,31.2,29.59,SSW,192,9.0,16.0,96,0.00,,,0.00,Wunderground v.1.15,2013-03-18 10:44:00,
2013-03-18 05:49:00,32.2,31.2,29.59,South,187,8.0,17.0,96,0.00,,,0.00,Wunderground v.1.15,2013-03-18 10:49:00,
2013-03-18 05:54:00,32.4,31.6,29.59,SSW,194,3.0,17.0,97,0.00,,,0.00,Wunderground v.1.15,2013-03-18 10:54:00,
2013-03-18 06:00:00,32.4,31.4,29.59,West,263,10.0,10.0,96,0.00,,,0.00,Wunderground v.1.15,2013-03-18 11:00:00,
2013-03-18 06:05:00,32.4,31.4,29.59,West,266,6.0,13.0,96,0.00,,,0.00,Wunderground v.1.15,2013-03-18 11:05:00,
2013-03-18 06:10:00,32.2,31.2,29.59,West,277,9.0,9.0,96,0.00,,,0.00,Wunderground v.1.15,2013-03-18 11:10:00,
2013-03-18 06:15:00,32.2,31.2,29.60,West,281,5.0,12.0,96,0.00,,,0.00,Wunderground v.1.15,2013-03-18 11:15:00,
2013-03-18 06:20:00,32.2,31.2,29.60,WSW,248,17.0,17.0,96,0.00,,,0.00,Wunderground v.1.15,2013-03-18 11:20:00,
2013-03-18 06:25:00,31.8,30.5,29.60,WNW,286,6.0,21.0,95,0.00,,,0.00,Wunderground v.1.15,2013-03-18 11:25:00,
2013-03-18 06:30:00,31.5,30.2,29.61,West,281,20.0,24.0,95,0.00,,,0.00,Wunderground v.1.15,2013-03-18 11:30:00,
2013-03-18 06:35:00,30.9,29.4,29.61,West,275,7.0,25.0,94,0.00,,,0.00,Wunderground v.1.15,2013-03-18 11:35:00,
2013-03-18 06:40:00,30.3,28.5,29.61,WNW,297,15.0,20.0,93,0.00,,,0.00,Wunderground v.1.15,2013-03-18 11:40:00,
2013-03-18 06:45:00,29.5,27.5,29.62,NW,306,18.0,26.0,92,0.00,,,0.00,Wunderground v.1.15,2013-03-18 11:45:00,
2013-03-18 06:50:00,29.0,26.7,29.62,West,271,13.0,20.0,91,0.00,,,0.00,Wunderground v.1.15,2013-03-18 11:50:00,
2013-03-18 06:55:00,28.4,25.6,29.62,WNW,296,20.0,24.0,89,0.00,,,0.00,Wunderground v.1.15,2013-03-18 11:55:00,
2013-03-18 07:00:00,28.1,25.3,29.63,WSW,254,18.0,22.0,89,0.00,,,0.00,Wunderground v.1.15,2013-03-18 12:00:00,
2013-03-18 07:05:00,27.8,24.4,29.63,NW,304,10.0,22.0,87,0.00,,,0.00,Wunderground v.1.15,2013-03-18 12:05:00,
2013-03-18 07:10:00,27.2,23.6,29.63,WNW,290,18.0,20.0,86,0.00,,,0.00,Wunderground v.1.15,2013-03-18 12:10:00,
2013-03-18 07:15:00,26.7,23.1,29.64,NW,306,11.0,20.0,86,0.00,,,0.00,Wunderground v.1.15,2013-03-18 12:15:00,
2013-03-18 07:20:00,26.4,22.5,29.64,NW,319,17.0,24.0,85,0.00,,,0.00,Wunderground v.1.15,2013-03-18 12:20:00,
2013-03-18 07:26:00,26.3,22.4,29.64,WNW,283,17.0,24.0,85,0.00,,,0.00,Wunderground v.1.15,2013-03-18 12:26:00,
2013-03-18 07:31:00,25.7,21.0,29.65,WNW,298,12.0,16.0,82,0.00,,,0.00,Wunderground v.1.15,2013-03-18 12:31:00,
2013-03-18 07:36:00,25.0,20.0,29.65,WNW,294,12.0,23.0,81,0.00,,,0.00,Wunderground v.1.15,2013-03-18 12:36:00,
2013-03-18 07:41:00,24.5,19.5,29.65,WNW,295,12.0,22.0,81,0.00,,,0.00,Wunderground v.1.15,2013-03-18 12:41:00,
2013-03-18 07:46:00,23.9,18.6,29.66,NW,304,16.0,22.0,80,0.00,,,0.00,Wunderground v.1.15,2013-03-18 12:46:00,
2013-03-18 07:51:00,23.8,18.5,29.66,NW,305,15.0,26.0,80,0.00,,,0.00,Wunderground v.1.15,2013-03-18 12:51:00,
2013-03-18 07:56:00,23.6,18.3,29.66,West,268,20.0,26.0,80,0.00,,,0.00,Wunderground v.1.15,2013-03-18 12:56:00,
2013-03-18 08:01:00,23.3,17.7,29.67,WNW,295,10.0,19.0,79,0.00,,,0.00,Wunderground v.1.15,2013-03-18 13:01:00,
2013-03-18 08:06:00,23.0,17.5,29.67,WNW,284,11.0,23.0,79,0.00,,,0.00,Wunderground v.1.15,2013-03-18 13:06:00,
2013-03-18 08:11:00,22.1,16.3,29.67,NNW,336,12.0,24.0,78,0.00,,,0.00,Wunderground v.1.15,2013-03-18 13:11:00,
2013-03-18 08:16:00,21.3,15.2,29.68,WNW,286,14.0,29.0,77,0.00,,,0.00,Wunderground v.1.15,2013-03-18 13:16:00,
2013-03-18 08:21:00,20.8,14.1,29.68,West,267,23.0,23.0,75,0.00,,,0.00,Wunderground v.1.15,2013-03-18 13:21:00,
2013-03-18 08:26:00,20.2,12.9,29.68,WNW,290,21.0,27.0,73,0.00,,,0.00,Wunderground v.1.15,2013-03-18 13:26:00,
2013-03-18 08:31:00,19.9,12.6,29.68,WNW,285,9.0,21.0,73,0.00,,,0.00,Wunderground v.1.15,2013-03-18 13:31:00,
2013-03-18 08:36:00,19.5,12.6,29.68,WNW,296,12.0,26.0,74,0.00,,,0.00,Wunderground v.1.15,2013-03-18 13:36:00,
2013-03-18 08:41:00,19.4,12.5,29.68,NW,305,15.0,19.0,74,0.00,,,0.00,Wunderground v.1.15,2013-03-18 13:41:00,
2013-03-18 08:47:00,19.1,11.9,29.70,NW,315,15.0,28.0,73,0.00,,,0.00,Wunderground v.1.15,2013-03-18 13:47:00,
2013-03-18 08:52:00,18.8,11.3,29.70,WNW,302,14.0,23.0,72,0.00,,,0.00,Wunderground v.1.15,2013-03-18 13:52:00,
2013-03-18 08:57:00,18.9,11.7,29.70,NNW,339,18.0,23.0,73,0.00,,,0.00,Wunderground v.1.15,2013-03-18 13:57:00,
2013-03-18 09:02:00,19.1,11.9,29.70,WNW,293,8.0,17.0,73,0.00,,,0.00,Wunderground v.1.15,2013-03-18 14:02:00,
2013-03-18 09:07:00,18.9,11.4,29.70,NNW,328,10.0,21.0,72,0.00,,,0.00,Wunderground v.1.15,2013-03-18 14:07:00,
2013-03-18 09:12:00,18.9,11.4,29.70,NW,308,21.0,21.0,72,0.00,,,0.00,Wunderground v.1.15,2013-03-18 14:12:00,
2013-03-18 09:17:00,18.9,12.0,29.70,WSW,249,15.0,23.0,74,0.00,,,0.00,Wunderground v.1.15,2013-03-18 14:17:00,
2013-03-18 09:22:00,18.8,11.3,29.70,WNW,284,11.0,21.0,72,0.00,,,0.00,Wunderground v.1.15,2013-03-18 14:22:00,
2013-03-18 09:27:00,18.4,11.2,29.70,WNW,294,14.0,26.0,73,0.00,,,0.00,Wunderground v.1.15,2013-03-18 14:27:00,
2013-03-18 09:32:00,18.0,10.5,29.71,NW,310,14.0,28.0,72,0.00,,,0.00,Wunderground v.1.15,2013-03-18 14:32:00,
2013-03-18 09:37:00,18.1,10.0,29.71,WNW,293,19.0,28.0,70,0.00,,,0.00,Wunderground v.1.15,2013-03-18 14:37:00,
2013-03-18 09:42:00,18.1,10.0,29.71,West,277,11.0,23.0,70,0.00,,,0.00,Wunderground v.1.15,2013-03-18 14:42:00,
2013-03-18 09:47:00,18.1,10.3,29.72,WNW,295,21.0,26.0,71,0.00,,,0.00,Wunderground v.1.15,2013-03-18 14:47:00,
2013-03-18 09:52:00,18.1,10.6,29.72,WNW,303,22.0,23.0,72,0.00,,,0.00,Wunderground v.1.15,2013-03-18 14:52:00,
2013-03-18 09:57:00,18.1,10.3,29.72,NW,318,13.0,24.0,71,0.00,,,0.00,Wunderground v.1.15,2013-03-18 14:57:00,
2013-03-18 10:02:00,17.8,10.3,29.72,WSW,239,11.0,24.0,72,0.00,,,0.00,Wunderground v.1.15,2013-03-18 15:02:00,
2013-03-18 10:07:00,17.5,11.2,29.72,WNW,292,24.0,26.0,76,0.00,,,0.00,Wunderground v.1.15,2013-03-18 15:07:00,
2013-03-18 10:12:00,17.3,9.5,29.72,NW,309,18.0,24.0,71,0.00,,,0.00,Wunderground v.1.15,2013-03-18 15:12:00,
2013-03-18 10:17:00,17.7,9.9,29.73,NW,311,11.0,27.0,71,0.00,,,0.00,Wunderground v.1.15,2013-03-18 15:17:00,
2013-03-18 10:22:00,18.0,9.5,29.73,WNW,303,25.0,25.0,69,0.00,,,0.00,Wunderground v.1.15,2013-03-18 15:22:00,
2013-03-18 10:27:00,18.0,9.5,29.73,NW,311,12.0,27.0,69,0.00,,,0.00,Wunderground v.1.15,2013-03-18 15:27:00,
2013-03-18 10:32:00,17.7,8.6,29.73,West,279,13.0,28.0,67,0.00,,,0.00,Wunderground v.1.15,2013-03-18 15:32:00,
2013-03-18 10:37:00,17.3,8.2,29.73,WNW,300,20.0,28.0,67,0.00,,,0.00,Wunderground v.1.15,2013-03-18 15:37:00,
2013-03-18 10:42:00,17.7,9.2,29.73,West,272,17.0,30.0,69,0.00,,,0.00,Wunderground v.1.15,2013-03-18 15:42:00,
2013-03-18 10:47:00,17.8,9.0,29.73,WNW,298,17.0,30.0,68,0.00,,,0.00,Wunderground v.1.15,2013-03-18 15:47:00,
2013-03-18 10:52:00,17.8,9.0,29.73,WNW,286,10.0,26.0,68,0.00,,,0.00,Wunderground v.1.15,2013-03-18 15:52:00,
2013-03-18 10:57:00,17.5,7.7,29.73,WNW,302,20.0,32.0,65,0.00,,,0.00,Wunderground v.1.15,2013-03-18 15:57:00,
2013-03-18 11:02:00,17.3,8.2,29.74,NW,313,10.0,20.0,67,0.00,,,0.00,Wunderground v.1.15,2013-03-18 16:02:00,
2013-03-18 11:07:00,17.2,7.4,29.74,WNW,285,12.0,32.0,65,0.00,,,0.00,Wunderground v.1.15,2013-03-18 16:07:00,
2013-03-18 11:12:00,17.2,7.8,29.74,NW,312,21.0,22.0,66,0.00,,,0.00,Wunderground v.1.15,2013-03-18 16:12:00,
2013-03-18 11:17:00,17.3,7.9,29.74,WNW,296,24.0,30.0,66,0.00,,,0.00,Wunderground v.1.15,2013-03-18 16:17:00,
2013-03-18 11:23:00,17.2,7.1,29.74,NW,313,19.0,28.0,64,0.00,,,0.00,Wunderground v.1.15,2013-03-18 16:23:00,
2013-03-18 11:28:00,17.5,7.4,29.74,NW,325,23.0,28.0,64,0.00,,,0.00,Wunderground v.1.15,2013-03-18 16:28:00,
2013-03-18 11:33:00,18.0,8.5,29.74,NW,324,9.0,22.0,66,0.00,,,0.00,Wunderground v.1.15,2013-03-18 16:33:00,
2013-03-18 11:38:00,18.0,8.9,29.74,West,268,19.0,30.0,67,0.00,,,0.00,Wunderground v.1.15,2013-03-18 16:38:00,
2013-03-18 11:43:00,17.8,8.0,29.74,NW,309,16.0,24.0,65,0.00,,,0.00,Wunderground v.1.15,2013-03-18 16:43:00,
2013-03-18 11:48:00,17.7,6.9,29.75,SW,230,20.0,32.0,62,0.00,,,0.00,Wunderground v.1.15,2013-03-18 16:48:00,
2013-03-18 11:53:00,17.7,7.9,29.75,NNW,328,13.0,25.0,65,0.00,,,0.00,Wunderground v.1.15,2013-03-18 16:53:00,
2013-03-18 11:58:00,17.2,6.8,29.76,NW,311,13.0,33.0,63,0.00,,,0.00,Wunderground v.1.15,2013-03-18 16:58:00,
2013-03-18 12:03:00,17.0,7.3,29.76,NNW,337,14.0,24.0,65,0.00,,,0.00,Wunderground v.1.15,2013-03-18 17:03:00,
2013-03-18 12:08:00,17.2,8.4,29.76,NW,323,17.0,25.0,68,0.00,,,0.00,Wunderground v.1.15,2013-03-18 17:08:00,
2013-03-18 12:13:00,16.4,7.3,29.76,WNW,294,15.0,27.0,67,0.00,,,0.00,Wunderground v.1.15,2013-03-18 17:13:00,
2013-03-18 12:18:00,16.4,7.0,29.76,West,277,21.0,27.0,66,0.00,,,0.00,Wunderground v.1.15,2013-03-18 17:18:00,
2013-03-18 12:23:00,16.2,6.8,29.76,WNW,293,17.0,31.0,66,0.00,,,0.00,Wunderground v.1.15,2013-03-18 17:23:00,
2013-03-18 12:28:00,16.4,7.0,29.77,WNW,296,10.0,31.0,66,0.00,,,0.00,Wunderground v.1.15,2013-03-18 17:28:00,
2013-03-18 12:33:00,16.2,6.5,29.77,WNW,290,18.0,30.0,65,0.00,,,0.00,Wunderground v.1.15,2013-03-18 17:33:00,
2013-03-18 12:38:00,16.5,7.4,29.77,WNW,292,20.0,30.0,67,0.00,,,0.00,Wunderground v.1.15,2013-03-18 17:38:00,
2013-03-18 12:43:00,16.5,7.8,29.77,WNW,288,16.0,29.0,68,0.00,,,0.00,Wunderground v.1.15,2013-03-18 17:43:00,
2013-03-18 12:48:00,16.2,7.5,29.77,WNW,294,16.0,29.0,68,0.00,,,0.00,Wunderground v.1.15,2013-03-18 17:48:00,
2013-03-18 12:53:00,16.5,7.8,29.77,NNW,336,17.0,30.0,68,0.00,,,0.00,Wunderground v.1.15,2013-03-18 17:53:00,
2013-03-18 12:58:00,16.9,7.8,29.77,West,276,25.0,32.0,67,0.00,,,0.00,Wunderground v.1.15,2013-03-18 17:58:00,
2013-03-18 13:03:00,16.9,7.8,29.77,West,271,24.0,28.0,67,0.00,,,0.00,Wunderground v.1.15,2013-03-18 18:03:00,
2013-03-18 13:08:00,16.7,7.6,29.77,WNW,298,12.0,29.0,67,0.00,,,0.00,Wunderground v.1.15,2013-03-18 18:08:00,
2013-03-18 13:13:00,16.7,7.3,29.78,West,272,20.0,28.0,66,0.00,,,0.00,Wunderground v.1.15,2013-03-18 18:13:00,
2013-03-18 13:18:00,16.4,7.7,29.78,NW,321,17.0,28.0,68,0.00,,,0.00,Wunderground v.1.15,2013-03-18 18:18:00,
2013-03-18 13:23:00,16.4,7.3,29.78,NW,321,22.0,29.0,67,0.00,,,0.00,Wunderground v.1.15,2013-03-18 18:23:00,
2013-03-18 13:28:00,16.2,7.8,29.79,WNW,286,15.0,29.0,69,0.00,,,0.00,Wunderground v.1.15,2013-03-18 18:28:00,
2013-03-18 13:33:00,16.7,8.0,29.79,WNW,300,20.0,23.0,68,0.00,,,0.00,Wunderground v.1.15,2013-03-18 18:33:00,
2013-03-18 13:38:00,16.4,7.3,29.79,NW,321,14.0,27.0,67,0.00,,,0.00,Wunderground v.1.15,2013-03-18 18:38:00,
2013-03-18 13:44:00,16.5,7.4,29.78,NNW,337,15.0,27.0,67,0.00,,,0.00,Wunderground v.1.15,2013-03-18 18:44:00,
2013-03-18 13:49:00,17.0,7.3,29.78,NNW,327,10.0,29.0,65,0.00,,,0.00,Wunderground v.1.15,2013-03-18 18:49:00,
2013-03-18 13:54:00,17.2,10.0,29.78,NW,307,19.0,25.0,73,0.00,,,0.00,Wunderground v.1.15,2013-03-18 18:54:00,
2013-03-18 13:59:00,17.2,7.4,29.78,WNW,301,20.0,31.0,65,0.00,,,0.00,Wunderground v.1.15,2013-03-18 18:59:00,
2013-03-18 14:04:00,16.9,6.1,29.78,WNW,299,21.0,28.0,62,0.00,,,0.00,Wunderground v.1.15,2013-03-18 19:04:00,
2013-03-18 14:09:00,17.0,6.6,29.78,WNW,297,13.0,29.0,63,0.00,,,0.00,Wunderground v.1.15,2013-03-18 19:09:00,
2013-03-18 14:14:00,17.2,7.4,29.78,WNW,301,20.0,29.0,65,0.00,,,0.00,Wunderground v.1.15,2013-03-18 19:14:00,
2013-03-18 14:19:00,17.5,8.4,29.78,WNW,286,17.0,29.0,67,0.00,,,0.00,Wunderground v.1.15,2013-03-18 19:19:00,
2013-03-18 14:24:00,17.5,6.7,29.78,WNW,300,9.0,23.0,62,0.00,,,0.00,Wunderground v.1.15,2013-03-18 19:24:00,
2013-03-18 14:29:00,17.0,8.3,29.79,NW,307,23.0,26.0,68,0.00,,,0.00,Wunderground v.1.15,2013-03-18 19:29:00,
2013-03-18 14:34:00,16.9,7.2,29.79,NNW,331,30.0,30.0,65,0.00,,,0.00,Wunderground v.1.15,2013-03-18 19:34:00,
2013-03-18 14:39:00,17.2,7.4,29.79,WNW,295,18.0,30.0,65,0.00,,,0.00,Wunderground v.1.15,2013-03-18 19:39:00,
2013-03-18 14:44:00,17.0,6.9,29.79,WSW,254,18.0,26.0,64,0.00,,,0.00,Wunderground v.1.15,2013-03-18 19:44:00,
2013-03-18 14:49:00,17.3,7.5,29.79,West,263,29.0,30.0,65,0.00,,,0.00,Wunderground v.1.15,2013-03-18 19:49:00,
2013-03-18 14:54:00,16.9,8.2,29.79,NW,306,20.0,28.0,68,0.00,,,0.00,Wunderground v.1.15,2013-03-18 19:54:00,
2013-03-18 14:59:00,17.2,6.8,29.79,WNW,301,18.0,28.0,63,0.00,,,0.00,Wunderground v.1.15,2013-03-18 19:59:00,
2013-03-18 15:04:00,17.3,7.2,29.79,WNW,294,19.0,28.0,64,0.00,,,0.00,Wunderground v.1.15,2013-03-18 20:04:00,
2013-03-18 15:09:00,17.2,8.1,29.79,WNW,292,11.0,28.0,67,0.00,,,0.00,Wunderground v.1.15,2013-03-18 20:09:00,
2013-03-18 15:14:00,16.9,7.8,29.80,NW,311,17.0,27.0,67,0.00,,,0.00,Wunderground v.1.15,2013-03-18 20:14:00,
2013-03-18 15:19:00,16.9,6.8,29.80,WNW,294,9.0,27.0,64,0.00,,,0.00,Wunderground v.1.15,2013-03-18 20:19:00,
2013-03-18 15:24:00,17.2,8.1,29.80,WNW,294,18.0,31.0,67,0.00,,,0.00,Wunderground v.1.15,2013-03-18 20:24:00,
2013-03-18 15:29:00,17.5,7.0,29.80,WNW,292,27.0,31.0,63,0.00,,,0.00,Wunderground v.1.15,2013-03-18 20:29:00,
2013-03-18 15:34:00,17.5,6.3,29.80,NW,308,23.0,27.0,61,0.00,,,0.00,Wunderground v.1.15,2013-03-18 20:34:00,
2013-03-18 15:39:00,16.9,5.8,29.80,West,279,17.0,28.0,61,0.00,,,0.00,Wunderground v.1.15,2013-03-18 20:39:00,
2013-03-18 15:44:00,16.4,6.3,29.80,NW,310,18.0,30.0,64,0.00,,,0.00,Wunderground v.1.15,2013-03-18 20:44:00,
2013-03-18 15:49:00,16.5,7.8,29.80,WNW,296,21.0,30.0,68,0.00,,,0.00,Wunderground v.1.15,2013-03-18 20:49:00,
2013-03-18 15:54:00,16.9,6.8,29.80,West,279,10.0,33.0,64,0.00,,,0.00,Wunderground v.1.15,2013-03-18 20:54:00,
2013-03-18 15:59:00,17.7,7.2,29.80,NW,315,9.0,33.0,63,0.00,,,0.00,Wunderground v.1.15,2013-03-18 20:59:00,
2013-03-18 16:04:00,17.3,6.8,29.80,WNW,293,14.0,32.0,63,0.00,,,0.00,Wunderground v.1.15,2013-03-18 21:04:00,
2013-03-18 16:09:00,17.0,7.9,29.80,WNW,284,19.0,33.0,67,0.00,,,0.00,Wunderground v.1.15,2013-03-18 21:09:00,
2013-03-18 16:14:00,17.3,8.5,29.80,NW,304,15.0,29.0,68,0.00,,,0.00,Wunderground v.1.15,2013-03-18 21:14:00,
2013-03-18 16:19:00,18.1,8.3,29.80,WNW,292,21.0,29.0,65,0.00,,,0.00,Wunderground v.1.15,2013-03-18 21:19:00,
2013-03-18 16:24:00,17.5,8.1,29.80,NNW,327,11.0,28.0,66,0.00,,,0.00,Wunderground v.1.15,2013-03-18 21:24:00,
2013-03-18 16:29:00,17.2,7.4,29.80,WNW,288,15.0,29.0,65,0.00,,,0.00,Wunderground v.1.15,2013-03-18 21:29:00,
2013-03-18 16:35:00,18.0,7.2,29.80,WNW,292,20.0,28.0,62,0.00,,,0.00,Wunderground v.1.15,2013-03-18 21:35:00,
2013-03-18 16:40:00,17.7,6.9,29.80,NW,321,27.0,27.0,62,0.00,,,0.00,Wunderground v.1.15,2013-03-18 21:40:00,
2013-03-18 16:45:00,17.2,8.1,29.82,NW,311,19.0,29.0,67,0.00,,,0.00,Wunderground v.1.15,2013-03-18 21:45:00,
2013-03-18 16:50:00,17.2,7.8,29.82,NW,316,16.0,18.0,66,0.00,,,0.00,Wunderground v.1.15,2013-03-18 21:50:00,
2013-03-18 16:55:00,16.9,5.8,29.82,WNW,293,16.0,30.0,61,0.00,,,0.00,Wunderground v.1.15,2013-03-18 21:55:00,
2013-03-18 17:00:00,17.2,6.0,29.82,NNW,329,14.0,26.0,61,0.00,,,0.00,Wunderground v.1.15,2013-03-18 22:00:00,
2013-03-18 17:05:00,17.5,6.7,29.82,NW,304,15.0,35.0,62,0.00,,,0.00,Wunderground v.1.15,2013-03-18 22:05:00,
2013-03-18 17:10:00,17.5,6.7,29.82,NW,315,23.0,25.0,62,0.00,,,0.00,Wunderground v.1.15,2013-03-18 22:10:00,
2013-03-18 17:15:00,18.0,7.5,29.83,North,350,15.0,26.0,63,0.00,,,0.00,Wunderground v.1.15,2013-03-18 22:15:00,
2013-03-18 17:20:00,18.1,8.0,29.83,WNW,301,11.0,23.0,64,0.00,,,0.00,Wunderground v.1.15,2013-03-18 22:20:00,
2013-03-18 17:25:00,18.4,7.2,29.83,WNW,303,11.0,29.0,61,0.00,,,0.00,Wunderground v.1.15,2013-03-18 22:25:00,
2013-03-18 17:30:00,18.4,7.9,29.83,West,278,12.0,21.0,63,0.00,,,0.00,Wunderground v.1.15,2013-03-18 22:30:00,
2013-03-18 17:35:00,17.5,7.4,29.83,West,281,16.0,28.0,64,0.00,,,0.00,Wunderground v.1.15,2013-03-18 22:35:00,
2013-03-18 17:40:00,17.5,6.3,29.83,West,272,20.0,28.0,61,0.00,,,0.00,Wunderground v.1.15,2013-03-18 22:40:00,
2013-03-18 17:45:00,17.8,7.0,29.83,WNW,283,17.0,30.0,62,0.00,,,0.00,Wunderground v.1.15,2013-03-18 22:45:00,
2013-03-18 17:50:00,17.7,7.2,29.83,NNW,334,16.0,18.0,63,0.00,,,0.00,Wunderground v.1.15,2013-03-18 22:50:00,
2013-03-18 17:55:00,17.3,5.8,29.83,WNW,284,14.0,38.0,60,0.00,,,0.00,Wunderground v.1.15,2013-03-18 22:55:00,
2013-03-18 18:00:00,17.0,6.2,29.84,WNW,288,25.0,26.0,62,0.00,,,0.00,Wunderground v.1.15,2013-03-18 23:00:00,
2013-03-18 18:05:00,16.5,6.4,29.84,WNW,290,21.0,29.0,64,0.00,,,0.00,Wunderground v.1.15,2013-03-18 23:05:00,
2013-03-18 18:10:00,16.2,6.8,29.84,NW,307,21.0,32.0,66,0.00,,,0.00,Wunderground v.1.15,2013-03-18 23:10:00,
2013-03-18 18:16:00,16.1,6.7,29.84,NW,320,11.0,32.0,66,0.00,,,0.00,Wunderground v.1.15,2013-03-18 23:16:00,
2013-03-18 18:21:00,16.4,6.3,29.84,WNW,303,11.0,24.0,64,0.00,,,0.00,Wunderground v.1.15,2013-03-18 23:21:00,
2013-03-18 18:26:00,16.5,6.1,29.84,NW,311,20.0,24.0,63,0.00,,,0.00,Wunderground v.1.15,2013-03-18 23:26:00,
2013-03-18 18:31:00,16.7,5.6,29.85,NNW,329,16.0,21.0,61,0.00,,,0.00,Wunderground v.1.15,2013-03-18 23:31:00,
2013-03-18 18:36:00,16.9,5.4,29.85,NW,309,12.0,22.0,60,0.00,,,0.00,Wunderground v.1.15,2013-03-18 23:36:00,
2013-03-18 18:41:00,17.0,5.9,29.85,WNW,299,18.0,18.0,61,0.00,,,0.00,Wunderground v.1.15,2013-03-18 23:41:00,
2013-03-18 18:46:00,16.7,5.9,29.86,NNW,331,17.0,22.0,62,0.00,,,0.00,Wunderground v.1.15,2013-03-18 23:46:00,
2013-03-18 18:51:00,16.4,5.6,29.86,West,279,19.0,19.0,62,0.00,,,0.00,Wunderground v.1.15,2013-03-18 23:51:00,
2013-03-18 18:56:00,16.2,5.1,29.86,NW,316,17.0,25.0,61,0.00,,,0.00,Wunderground v.1.15,2013-03-18 23:56:00,
2013-03-18 19:01:00,16.1,5.0,29.86,WSW,255,18.0,18.0,61,0.00,,,0.00,Wunderground v.1.15,2013-03-19 00:01:00,
2013-03-18 19:06:00,15.7,5.0,29.86,NW,311,13.0,26.0,62,0.00,,,0.00,Wunderground v.1.15,2013-03-19 00:06:00,
2013-03-18 19:11:00,15.6,5.6,29.86,WNW,288,16.0,20.0,64,0.00,,,0.00,Wunderground v.1.15,2013-03-19 00:11:00,
2013-03-18 19:16:00,15.6,5.6,29.88,WNW,288,14.0,25.0,64,0.00,,,0.00,Wunderground v.1.15,2013-03-19 00:16:00,
2013-03-18 19:21:00,15.4,4.7,29.88,WNW,283,11.0,24.0,62,0.00,,,0.00,Wunderground v.1.15,2013-03-19 00:21:00,
2013-03-18 19:26:00,15.2,4.9,29.88,WNW,286,12.0,26.0,63,0.00,,,0.00,Wunderground v.1.15,2013-03-19 00:26:00,
2013-03-18 19:31:00,15.1,5.1,29.90,WNW,286,16.0,22.0,64,0.00,,,0.00,Wunderground v.1.15,2013-03-19 00:31:00,
2013-03-18 19:36:00,15.1,5.1,29.90,NW,316,12.0,24.0,64,0.00,,,0.00,Wunderground v.1.15,2013-03-19 00:36:00,
2013-03-18 19:41:00,15.1,5.1,29.90,West,275,14.0,27.0,64,0.00,,,0.00,Wunderground v.1.15,2013-03-19 00:41:00,